メインページ
METAR-TAF:

METAR-TAF

空港 :

カラカス, ベネズエラ

シモン・ボリバル国際空港

緯度: 10-36N, 経度: 066-59W, 海抜: 43m

現時点の気象観測

当レポートは4時間8分前の07:00(UTC)に作成
気温 27°C
湿度 79%
気圧 1011 hPa
視程10km以上
高度1600ftの雲はほとんどない

METAR: SVMI 200700Z 0902KT 9999 FEW016 27/23 Q1011

時間: 07:08 (11:08 UTC)

予報

当レポートは13時間8分前の22:00(UTC)に作成
予報は20日の 00時(UTC)から 21日の 00時(UTC)まで有効
東/北東の風 3kt
視程10km以上
高度1600ftの雲はほとんどない
20日の 00時(UTC)から 20日の 04時(UTC)まで徐々に
北東の風 5kt
視程10km以上
高度1600ftの雲は散在している
高度8000ftの雲は散在している

TAF: SVMI 192200Z 2000/2100 07003KT 9999 FEW016 TX32/18Z TN25/09Z BECMG 2000/2004 05005KT 9999 SCT016 SCT080

4,000以上の空港の気象観測と天気予報(METAR報とTAF報)

利用可能な観測所は地図上に黄色い丸と赤い丸で示す。

丸の上にカーソルを重ねると観測所名を参照できる。

次にクリックすると気象観測と天気予報を参照できる。

マップの切り替え:黒色「×」印の緑ボタンをクリックして拡大、「-」印の緑ボタンをクリックして縮小、緑色の三角印をクリックして隣りの地図に切り替え


METAR-TAF: